map of GDL home
GDL - Airport
Location
City:  Guadalajara, Jalisco, México
Name:Don Miguel Hidalgo y Costilla International Airport
ICAO:MMGL
IATA:GDL

Details
Type:Airport (Aerodrome, Airfield)
Use:Public/Civil, International (customs port of entry)
Latitude:20°31'18"N (20.521800)
Longitude:103°18'40"W (-103.311166)
Datum:WGS 1984
Elevation:5016 ft (1529 m)
Variation:6.15°E (WMM2015 magnetic declination)
-0.10° annual change
Runways:2
Longest:13123 × 197 ft (4000 × 60 m), paved

Time
Time Zone:UTC-6 (DST-5)
Local Time:

Weather
METAR:MMGL 200441Z 00000KT 8SM SKC 13/07 A3022
TAF:MMGL 200428Z 2006/2112 30005KT 6SM HZ SKC TX26/2021Z TN06/2012Z
FM201800 16010KT P6SM SKC
FM210300 16005KT P6SM SKC

Related Locations
Nearby:
Farthest:RRG: 11581 mi / 18638 km
Plaine Corail [Sir Gaëtan Duval Airport (Plaine Corail Airport)], Rodrigues Island, MU

Find:

   beyond  
but within

Other Information
Maps:
NOTAMs:
Links:
Sources:

  
  • flag of México
  • flag of Jalisco
  

Sectional Chart

Flight Planning
at skyvector.com

Satellite Image

Google Maps Satellite view

 

Copyright © 2004-2018 Karl L. Swartz. All rights reserved.
The Great Circle Mapper name and logo are trademarks of the Great Circle Mapper.
All other trademarks mentioned herein belong to their respective owners.
Please see credits for attibutions and further copyright information.

  Follow gcmap on Facebook Follow gcmap on Twitter Follow gcmap on Google+ GCmap on LinkedIn

hCard Microformat

Geo Microformat